Delaware, Ohio
Current Conditions -  °F | °C
As of 7:21 AM on Monday 22 Dec 2014 (Local Time) from KDLZ Reporting Station
Overcast Overcast  
Wind Chill: 27°   Ceiling: 4500
Heat Index: 27°   Visibility: 7mi
Dew Point: 23°   Wind: 3mph
Humidity: 86%   Direction: 100°E
Pressure: 30.07"   Gusts: NA
Location:  40.3°N, 83.06°W
Report Text: KDLZ 221221Z AUTO 10003KT 7SM OVC045 M03/M05 A3007 RMK AO2
Loading
Personal Weather Stations






























Interactive Weather Map New forecast layout! Learn more

10-Day Weather Forecast

Advertisements
Track Severe Weather on mobile